Time;durP1;ratioP1;P1;durP2;ratioP2;P2;SDS_P1;SDS_P2;PMS_P1;PMS_P2;Temp;Humidity;BMP_temperature;BMP_pressure;BME280_temperature;BME280_humidity;BME280_pressure;Samples;Min_cycle;Max_cycle;Signal;HPM_P1;HPM_P2
2021/03/27 00:00:21;;;;;;;11.50;4.03;;;;;;;-142.13;100.00;58370.81;4989746;28;20437;-72
2021/03/27 00:02:53;;;;;;;10.70;3.77;;;;;;;-142.13;100.00;58370.81;4992342;28;20496;-72
2021/03/27 00:05:25;;;;;;;6.63;3.70;;;;;;;-142.13;100.00;58370.81;4988633;28;20838;-73
2021/03/27 00:08:03;;;;;;;7.70;3.70;;;;;;;-142.13;100.00;58370.81;4968326;28;20475;-73
2021/03/27 00:10:34;;;;;;;8.33;3.57;;;;;;;-142.13;100.00;58370.81;4984666;28;20459;-73
2021/03/27 00:13:14;;;;;;;7.90;3.80;;;;;;;-142.13;100.00;58370.81;4987333;28;20988;-74
2021/03/27 00:15:48;;;;;;;8.70;4.80;;;;;;;-142.13;100.00;58370.81;4989907;28;20957;-75
2021/03/27 00:18:22;;;;;;;10.17;3.43;;;;;;;-142.13;100.00;58370.81;4971701;28;20843;-72
2021/03/27 00:20:57;;;;;;;10.80;3.90;;;;;;;-142.13;100.00;58370.81;4984852;28;20759;-72
2021/03/27 00:23:31;;;;;;;7.10;3.63;;;;;;;-142.13;100.00;58370.81;4970571;28;20962;-71
2021/03/27 00:26:01;;;;;;;6.87;3.03;;;;;;;-142.13;100.00;58370.81;4984813;28;20452;-72
2021/03/27 00:28:34;;;;;;;6.37;3.30;;;;;;;-142.13;100.00;58370.81;4987673;28;20863;-70
2021/03/27 00:31:09;;;;;;;6.67;3.63;;;;;;;-142.13;100.00;58370.81;4989038;28;21007;-73
2021/03/27 00:33:44;;;;;;;6.57;2.87;;;;;;;-142.13;100.00;58370.81;4970666;28;20957;-73
2021/03/27 00:36:15;;;;;;;7.93;3.50;;;;;;;-142.13;100.00;58370.81;4987466;28;20867;-71
2021/03/27 00:38:48;;;;;;;7.87;3.43;;;;;;;-142.13;100.00;58370.81;4985479;28;20971;-71
2021/03/27 00:41:19;;;;;;;8.17;3.50;;;;;;;-142.13;100.00;58370.81;4987941;28;20535;-73
2021/03/27 00:43:49;;;;;;;6.20;3.40;;;;;;;-142.13;100.00;58370.81;4986701;28;20464;-72
2021/03/27 00:46:18;;;;;;;8.10;3.60;;;;;;;-142.13;100.00;58370.81;4989331;28;20762;-72
2021/03/27 00:48:52;;;;;;;11.97;4.50;;;;;;;-142.13;100.00;58370.81;4985391;28;20905;-71
2021/03/27 00:51:26;;;;;;;8.20;4.50;;;;;;;-142.13;100.00;58370.81;4987353;28;20784;-72
2021/03/27 00:53:59;;;;;;;7.23;3.47;;;;;;;-142.13;100.00;58370.81;4986209;28;20913;-72
2021/03/27 00:56:29;;;;;;;9.70;4.07;;;;;;;-142.13;100.00;58370.81;4984814;28;20448;-71
2021/03/27 00:58:59;;;;;;;7.77;3.63;;;;;;;-142.13;100.00;58370.81;4987130;28;20527;-71
2021/03/27 01:01:29;;;;;;;8.40;4.07;;;;;;;-142.13;100.00;58370.81;4985808;28;20428;-71
2021/03/27 01:04:01;;;;;;;11.00;5.00;;;;;;;-142.13;100.00;58370.81;4971857;28;20931;-71
2021/03/27 01:06:31;;;;;;;5.60;3.20;;;;;;;-142.13;100.00;58370.81;4992594;28;21238;-72
2021/03/27 01:09:01;;;;;;;6.53;4.10;;;;;;;-142.13;100.00;58370.81;4990143;28;20851;-73
2021/03/27 01:11:32;;;;;;;8.87;3.30;;;;;;;-142.13;100.00;58370.81;4987047;28;20463;-72
2021/03/27 01:14:05;;;;;;;8.73;4.47;;;;;;;-142.13;100.00;58370.81;4986962;28;20769;-72
2021/03/27 01:16:36;;;;;;;6.43;3.83;;;;;;;-142.13;100.00;58370.81;4987471;28;20639;-71
2021/03/27 01:19:09;;;;;;;6.60;3.73;;;;;;;-142.13;100.00;58370.81;4988072;28;20541;-73
2021/03/27 01:21:39;;;;;;;7.80;4.50;;;;;;;-142.13;100.00;58370.81;4987521;28;20486;-71
2021/03/27 01:24:10;;;;;;;5.50;2.80;;;;;;;-142.13;100.00;58370.81;4987891;28;20851;-72
2021/03/27 01:26:41;;;;;;;8.57;3.47;;;;;;;-142.13;100.00;58370.81;4988646;28;20444;-72
2021/03/27 01:29:14;;;;;;;4.77;3.50;;;;;;;-142.13;100.00;58370.81;4985154;28;20463;-72
2021/03/27 01:31:45;;;;;;;9.20;4.83;;;;;;;-142.13;100.00;58370.81;4992363;28;20947;-72
2021/03/27 01:34:28;;;;;;;5.33;3.23;;;;;;;-142.13;100.00;58370.81;4987395;28;20780;-72
2021/03/27 01:37:12;;;;;;;7.67;4.13;;;;;;;-142.13;100.00;58370.81;4986203;28;20506;-73
2021/03/27 01:39:46;;;;;;;9.50;4.60;;;;;;;-142.13;100.00;58370.81;4986269;28;20453;-72
2021/03/27 01:42:20;;;;;;;9.63;4.00;;;;;;;-142.13;100.00;58370.81;4967126;28;20497;-69
2021/03/27 01:45:05;;;;;;;6.37;3.50;;;;;;;-142.13;100.00;58370.81;4987213;28;20440;-71
2021/03/27 01:47:38;;;;;;;6.20;3.13;;;;;;;-142.13;100.00;58370.81;4982241;28;20966;-71
2021/03/27 01:50:21;;;;;;;9.57;4.07;;;;;;;-142.13;100.00;58370.81;4987310;28;20894;-70
2021/03/27 01:53:22;;;;;;;6.83;3.17;;;;;;;-142.13;100.00;58370.81;4985049;28;20467;-71
2021/03/27 01:56:13;;;;;;;10.63;4.30;;;;;;;-142.13;100.00;58370.81;4981469;28;20785;-71
2021/03/27 01:58:48;;;;;;;5.10;3.50;;;;;;;-142.13;100.00;58370.81;4984852;28;20998;-71
2021/03/27 02:01:21;;;;;;;7.40;3.80;;;;;;;-142.13;100.00;58370.81;4985518;28;20988;-71
2021/03/27 02:03:54;;;;;;;5.93;4.07;;;;;;;-142.13;100.00;58370.81;4986224;28;21148;-71
2021/03/27 02:06:39;;;;;;;7.83;3.47;;;;;;;-142.13;100.00;58370.81;4986143;28;20476;-71
2021/03/27 02:09:12;;;;;;;9.23;3.03;;;;;;;-142.13;100.00;58370.81;4988990;28;20861;-70
2021/03/27 02:11:57;;;;;;;17.17;4.10;;;;;;;-142.13;100.00;58370.81;4984687;28;20452;-71
2021/03/27 02:14:32;;;;;;;5.10;3.10;;;;;;;-142.13;100.00;58370.81;4988645;28;20796;-72
2021/03/27 02:17:03;;;;;;;8.30;3.83;;;;;;;-142.13;100.00;58370.81;4986755;28;20435;-71
2021/03/27 02:20:16;;;;;;;5.97;3.70;;;;;;;-142.13;100.00;58370.81;4984417;28;20428;-71
2021/03/27 02:22:55;;;;;;;8.83;4.00;;;;;;;-142.13;100.00;58370.81;4989956;28;20812;-71
2021/03/27 02:26:01;;;;;;;11.03;5.20;;;;;;;-142.13;100.00;58370.81;4969494;28;20436;-71
2021/03/27 02:28:48;;;;;;;7.13;4.67;;;;;;;-142.13;100.00;58370.81;4988255;28;20466;-72
2021/03/27 02:31:22;;;;;;;16.73;6.07;;;;;;;-142.13;100.00;58370.81;4983029;28;20795;-72
2021/03/27 02:33:55;;;;;;;10.77;4.73;;;;;;;-142.13;100.00;58370.81;4982482;28;20474;-73
2021/03/27 02:36:31;;;;;;;10.57;5.43;;;;;;;-142.13;100.00;58370.81;4986447;28;20435;-72
2021/03/27 02:39:18;;;;;;;7.30;3.50;;;;;;;-142.13;100.00;58370.81;4987182;28;20759;-72
2021/03/27 02:42:03;;;;;;;8.03;4.50;;;;;;;-142.13;100.00;58370.81;4983158;28;20440;-73
2021/03/27 02:44:35;;;;;;;5.87;3.73;;;;;;;-142.13;100.00;58370.81;4991775;28;20895;-72
2021/03/27 02:47:38;;;;;;;8.83;4.23;;;;;;;-142.13;100.00;58370.81;4978946;28;20443;-72
2021/03/27 02:50:31;;;;;;;7.53;4.23;;;;;;;-142.13;100.00;58370.81;4972789;28;20471;-72
2021/03/27 02:53:05;;;;;;;5.40;3.63;;;;;;;-142.13;100.00;58370.81;4987143;28;20879;-73
2021/03/27 02:58:38;;;;;;;7.40;3.20;;;;;;;-142.13;100.00;58370.81;4985005;28;20496;-71
2021/03/27 03:01:11;;;;;;;6.00;3.23;;;;;;;-142.13;100.00;58370.81;4989678;28;20452;-72
2021/03/27 03:03:50;;;;;;;5.33;2.77;;;;;;;-142.13;100.00;58370.81;4986356;28;20471;-73
2021/03/27 03:06:26;;;;;;;7.20;2.87;;;;;;;-142.13;100.00;58370.81;4986164;28;20561;-74
2021/03/27 03:09:06;;;;;;;5.03;3.00;;;;;;;-142.13;100.00;58370.81;4987044;28;20965;-73
2021/03/27 03:11:46;;;;;;;5.90;2.33;;;;;;;-142.13;100.00;58370.81;4988699;28;20675;-73
2021/03/27 03:14:19;;;;;;;5.40;3.00;;;;;;;-142.13;100.00;58370.81;4989414;28;20568;-72
2021/03/27 03:16:57;;;;;;;3.60;2.00;;;;;;;-142.13;100.00;58370.81;4989615;28;20195;-72
2021/03/27 03:19:49;;;;;;;5.80;2.20;;;;;;;-142.13;100.00;58370.81;4987171;28;21145;-72
2021/03/27 03:22:23;;;;;;;6.10;3.10;;;;;;;-142.13;100.00;58370.81;4985295;28;20908;-71
2021/03/27 03:24:57;;;;;;;1.90;1.33;;;;;;;-142.13;100.00;58370.81;4991034;28;20789;-73
2021/03/27 03:27:36;;;;;;;2.03;1.40;;;;;;;-142.13;100.00;58370.81;4986765;28;20851;-71
2021/03/27 03:30:22;;;;;;;1.17;0.80;;;;;;;-142.13;100.00;58370.81;4987790;28;20510;-71
2021/03/27 03:32:58;;;;;;;1.85;0.98;;;;;;;-142.13;100.00;58370.81;4970421;28;20846;-72
2021/03/27 03:35:35;;;;;;;1.60;0.90;;;;;;;-142.13;100.00;58370.81;4986801;28;20300;-73
2021/03/27 03:38:27;;;;;;;1.40;0.70;;;;;;;-142.13;100.00;58370.81;4991619;28;20662;-71
2021/03/27 03:41:14;;;;;;;0.95;0.70;;;;;;;-142.13;100.00;58370.81;4990993;28;20683;-71
2021/03/27 03:43:49;;;;;;;1.45;0.80;;;;;;;-142.13;100.00;58370.81;4983017;28;20691;-72
2021/03/27 03:46:25;;;;;;;1.40;0.90;;;;;;;-142.13;100.00;58370.81;4988844;28;20639;-72
2021/03/27 03:49:06;;;;;;;3.35;0.60;;;;;;;-142.13;100.00;58370.81;4988527;28;20833;-72
2021/03/27 03:51:50;;;;;;;5.88;0.80;;;;;;;-142.13;100.00;58370.81;4990129;28;20663;-72
2021/03/27 03:54:24;;;;;;;2.17;0.90;;;;;;;-142.13;100.00;58370.81;4990726;28;20306;-72
2021/03/27 03:57:03;;;;;;;1.10;0.70;;;;;;;-142.13;100.00;58370.81;4987151;28;20667;-72
2021/03/27 03:59:41;;;;;;;1.10;0.70;;;;;;;-142.13;100.00;58370.81;4990816;28;20272;-72
2021/03/27 04:02:20;;;;;;;1.20;0.70;;;;;;;-142.13;100.00;58370.81;4986195;28;20220;-72
2021/03/27 04:04:52;;;;;;;1.80;0.80;;;;;;;-142.13;100.00;58370.81;4985966;28;20272;-72
2021/03/27 04:07:26;;;;;;;2.45;0.75;;;;;;;-142.13;100.00;58370.81;4988859;28;20220;-73
2021/03/27 04:09:57;;;;;;;1.00;0.60;;;;;;;-142.13;100.00;58370.81;4987260;28;20188;-72
2021/03/27 04:12:31;;;;;;;1.00;0.60;;;;;;;-142.13;100.00;58370.81;4988883;28;20774;-71
2021/03/27 04:15:09;;;;;;;3.05;0.80;;;;;;;-142.13;100.00;58370.81;4990529;28;20194;-72
2021/03/27 04:17:46;;;;;;;1.70;1.10;;;;;;;-142.13;100.00;58370.81;4992255;28;20213;-72
2021/03/27 04:20:39;;;;;;;0.90;0.70;;;;;;;-142.13;100.00;58370.81;4986813;28;20194;-72
2021/03/27 04:23:12;;;;;;;4.95;0.80;;;;;;;-142.13;100.00;58370.81;4987320;28;20234;-73
2021/03/27 04:25:48;;;;;;;1.83;0.90;;;;;;;-142.13;100.00;58370.81;4968257;28;20218;-72
2021/03/27 04:28:29;;;;;;;1.92;0.90;;;;;;;-142.13;100.00;58370.81;4984344;28;20706;-72
2021/03/27 04:31:02;;;;;;;3.25;0.85;;;;;;;-142.13;100.00;58370.81;4989261;28;20197;-74
2021/03/27 04:33:46;;;;;;;1.85;1.02;;;;;;;-142.13;100.00;58370.81;4989807;28;20217;-72
2021/03/27 04:36:17;;;;;;;1.63;0.60;;;;;;;-142.13;100.00;58370.81;4992664;28;20786;-73
2021/03/27 04:38:54;;;;;;;2.17;1.10;;;;;;;-142.13;100.00;58370.81;4988684;28;20617;-73
2021/03/27 04:41:30;;;;;;;1.05;0.80;;;;;;;-142.13;100.00;58370.81;4987858;28;20980;-72
2021/03/27 04:44:04;;;;;;;0.82;0.70;;;;;;;-142.13;100.00;58370.81;4989126;28;20260;-72
2021/03/27 04:46:38;;;;;;;1.45;0.80;;;;;;;-142.13;100.00;58370.81;4989459;28;20641;-73
2021/03/27 04:49:17;;;;;;;0.90;0.70;;;;;;;-142.13;100.00;58370.81;4984314;28;20247;-72
2021/03/27 04:51:51;;;;;;;0.80;0.60;;;;;;;-142.13;100.00;58370.81;4984482;28;20581;-73
2021/03/27 04:54:34;;;;;;;1.13;0.82;;;;;;;-142.13;100.00;58370.81;4988381;28;20544;-72
2021/03/27 04:57:14;;;;;;;1.52;0.70;;;;;;;-142.13;100.00;58370.81;4987961;28;20201;-73
2021/03/27 04:59:54;;;;;;;1.10;0.80;;;;;;;-142.13;100.00;58370.81;4984575;28;20632;-72
2021/03/27 05:02:29;;;;;;;0.80;0.70;;;;;;;-142.13;100.00;58370.81;4990908;28;20223;-72
2021/03/27 05:05:03;;;;;;;1.15;0.70;;;;;;;-142.13;100.00;58370.81;4982461;28;20224;-72
2021/03/27 05:07:56;;;;;;;0.90;0.68;;;;;;;-142.13;100.00;58370.81;4998299;28;20773;-73
2021/03/27 05:10:35;;;;;;;0.80;0.70;;;;;;;-142.13;100.00;58370.81;4994990;28;20197;-70
2021/03/27 05:13:17;;;;;;;1.27;0.60;;;;;;;-142.13;100.00;58370.81;5001343;28;20865;-70
2021/03/27 05:15:51;;;;;;;1.48;0.80;;;;;;;-142.13;100.00;58370.81;4984873;28;20186;-70
2021/03/27 05:18:51;;;;;;;1.25;0.70;;;;;;;-142.13;100.00;58370.81;4992423;28;20228;-70
2021/03/27 05:22:31;;;;;;;0.90;0.70;;;;;;;-142.13;100.00;58370.81;5002349;28;20891;-72
2021/03/27 05:29:16;;;;;;;3.17;0.70;;;;;;;-142.13;100.00;58370.81;5005097;28;20567;-71
2021/03/27 05:32:01;;;;;;;3.55;0.60;;;;;;;-142.13;100.00;58370.81;4909041;28;20226;-70
2021/03/27 05:34:34;;;;;;;0.90;0.50;;;;;;;-142.13;100.00;58370.81;4908848;28;20415;-70
2021/03/27 05:37:30;;;;;;;0.90;0.77;;;;;;;-142.13;100.00;58370.81;4924255;28;20690;-71
2021/03/27 05:40:10;;;;;;;1.25;0.75;;;;;;;-142.13;100.00;58370.81;4961552;28;20539;-70
2021/03/27 05:43:10;;;;;;;1.00;0.70;;;;;;;-142.13;100.00;58370.81;4982006;28;20615;-71
2021/03/27 05:46:11;;;;;;;1.00;0.75;;;;;;;-142.13;100.00;58370.81;4989011;28;20205;-73
2021/03/27 05:49:17;;;;;;;1.02;0.60;;;;;;;-142.13;100.00;58370.81;4986359;28;20217;-72
2021/03/27 05:52:14;;;;;;;1.33;0.70;;;;;;;-142.13;100.00;58370.81;4985962;28;20197;-73
2021/03/27 05:55:15;;;;;;;3.65;0.73;;;;;;;-142.13;100.00;58370.81;4986875;28;20393;-73
2021/03/27 05:58:15;;;;;;;2.03;0.80;;;;;;;-142.13;100.00;58370.81;4987268;28;20605;-72
2021/03/27 06:00:55;;;;;;;0.90;0.65;;;;;;;-142.13;100.00;58370.81;4986693;28;20690;-74
2021/03/27 06:04:00;;;;;;;2.85;0.70;;;;;;;-142.13;100.00;58370.81;4987601;28;20324;-73
2021/03/27 06:07:24;;;;;;;2.38;0.90;;;;;;;-142.13;100.00;58370.81;4995553;28;20672;-73
2021/03/27 06:10:20;;;;;;;1.33;0.80;;;;;;;-142.13;100.00;58370.81;4989726;28;20550;-73
2021/03/27 06:13:22;;;;;;;8.93;0.70;;;;;;;-142.13;100.00;58370.81;4986329;28;20240;-73
2021/03/27 06:16:33;;;;;;;2.03;0.70;;;;;;;-142.13;100.00;58370.81;4975382;28;20294;-72
2021/03/27 06:19:17;;;;;;;2.55;1.00;;;;;;;-142.13;100.00;58370.81;4995018;28;20225;-73
2021/03/27 06:22:23;;;;;;;1.52;0.77;;;;;;;-142.13;100.00;58370.81;4995242;28;20197;-73
2021/03/27 06:25:02;;;;;;;4.30;1.27;;;;;;;-142.13;100.00;58370.81;4995945;28;20193;-72
2021/03/27 06:27:49;;;;;;;9.85;0.95;;;;;;;-142.13;100.00;58370.81;4988799;28;20651;-72
2021/03/27 06:30:46;;;;;;;3.65;1.10;;;;;;;-142.13;100.00;58370.81;4988311;28;20189;-73
2021/03/27 06:33:31;;;;;;;9.27;1.30;;;;;;;-142.13;100.00;58370.81;4918894;28;20239;-73
2021/03/27 06:36:34;;;;;;;3.10;1.08;;;;;;;-142.13;100.00;58370.81;4992314;28;20285;-73
2021/03/27 06:39:46;;;;;;;1.80;0.88;;;;;;;-142.13;100.00;58370.81;4898448;29;20548;-71
2021/03/27 06:42:35;;;;;;;4.50;0.93;;;;;;;-142.13;100.00;58370.81;4898875;29;20295;-72
2021/03/27 06:45:26;;;;;;;0.90;0.70;;;;;;;-142.13;100.00;58370.81;4982183;28;20286;-73
2021/03/27 06:48:31;;;;;;;3.38;1.27;;;;;;;-142.13;100.00;58370.81;4941781;28;20210;-73
2021/03/27 06:51:20;;;;;;;2.65;0.70;;;;;;;-142.13;100.00;58370.81;4990029;28;20589;-73
2021/03/27 06:54:13;;;;;;;0.80;0.60;;;;;;;-142.13;100.00;58370.81;4986838;28;20664;-74
2021/03/27 06:56:51;;;;;;;1.90;0.75;;;;;;;-142.13;100.00;58370.81;4994319;28;20194;-73
2021/03/27 06:59:59;;;;;;;3.38;0.93;;;;;;;-142.13;100.00;58370.81;4979449;28;20295;-72
2021/03/27 07:03:14;;;;;;;1.42;0.80;;;;;;;-142.13;100.00;58370.81;4989418;28;20668;-73
2021/03/27 07:06:25;;;;;;;3.10;0.80;;;;;;;-142.13;100.00;58370.81;4925579;28;20607;-73
2021/03/27 07:09:10;;;;;;;1.00;0.60;;;;;;;-142.13;100.00;58370.81;4985008;28;20616;-73
2021/03/27 07:12:08;;;;;;;1.40;0.70;;;;;;;-142.13;100.00;58370.81;4994515;28;20213;-72
2021/03/27 07:14:50;;;;;;;1.00;0.70;;;;;;;-142.13;100.00;58370.81;4986913;28;20311;-73
2021/03/27 07:17:34;;;;;;;2.88;0.60;;;;;;;-142.13;100.00;58370.81;4989206;28;20225;-72
2021/03/27 07:20:22;;;;;;;4.10;0.95;;;;;;;-142.13;100.00;58370.81;4986475;28;20196;-73
2021/03/27 07:23:18;;;;;;;2.78;0.80;;;;;;;-142.13;100.00;58370.81;4992058;28;20216;-73
2021/03/27 07:26:03;;;;;;;0.90;0.50;;;;;;;-142.13;100.00;58370.81;4987323;28;20626;-72
2021/03/27 07:29:04;;;;;;;3.80;1.75;;;;;;;-142.13;100.00;58370.81;4988536;28;20242;-73
2021/03/27 07:31:49;;;;;;;2.90;1.65;;;;;;;-142.13;100.00;58370.81;4985760;28;20598;-74
2021/03/27 07:34:52;;;;;;;5.63;0.80;;;;;;;-142.13;100.00;58370.81;4985992;28;20323;-74
2021/03/27 07:37:42;;;;;;;2.40;0.83;;;;;;;-142.13;100.00;58370.81;4986852;28;20470;-73
2021/03/27 07:40:30;;;;;;;1.30;0.63;;;;;;;-142.13;100.00;58370.81;4987817;28;20443;-73
2021/03/27 07:43:23;;;;;;;1.53;0.80;;;;;;;-142.13;100.00;58370.81;4986901;28;20475;-74
2021/03/27 07:46:21;;;;;;;1.77;0.80;;;;;;;-142.13;100.00;58370.81;4987831;28;20528;-73
2021/03/27 07:49:06;;;;;;;3.70;0.87;;;;;;;-142.13;100.00;58370.81;4987084;28;20954;-73
2021/03/27 07:52:00;;;;;;;2.50;0.70;;;;;;;-142.13;100.00;58370.81;4986351;28;20464;-73
2021/03/27 07:55:01;;;;;;;2.70;0.60;;;;;;;-142.13;100.00;58370.81;4984376;28;20451;-73
2021/03/27 07:58:01;;;;;;;2.10;0.80;;;;;;;-142.13;100.00;58370.81;4991423;28;21511;-72
2021/03/27 08:00:49;;;;;;;0.97;0.70;;;;;;;-142.13;100.00;58370.81;4934512;28;21037;-73
2021/03/27 08:03:51;;;;;;;0.83;0.60;;;;;;;-142.13;100.00;58370.81;4985803;28;21014;-73
2021/03/27 08:06:46;;;;;;;1.20;0.70;;;;;;;-142.13;100.00;58370.81;4967868;28;21000;-74
2021/03/27 08:09:33;;;;;;;1.70;0.90;;;;;;;-142.13;100.00;58370.81;4976453;28;20498;-74
2021/03/27 08:12:40;;;;;;;2.10;0.60;;;;;;;-142.13;100.00;58370.81;4986458;28;20935;-73
2021/03/27 08:15:28;;;;;;;1.93;1.07;;;;;;;-142.13;100.00;58370.81;4990505;28;20433;-73
2021/03/27 08:18:26;;;;;;;2.57;0.90;;;;;;;-142.13;100.00;58370.81;4975180;28;20479;-74
2021/03/27 08:21:01;;;;;;;1.00;0.60;;;;;;;-142.13;100.00;58370.81;4991142;28;20452;-73
2021/03/27 08:23:59;;;;;;;6.83;1.97;;;;;;;-142.13;100.00;58370.81;4988222;28;20546;-74
2021/03/27 08:26:59;;;;;;;3.17;0.80;;;;;;;-142.13;100.00;58370.81;4991457;28;20454;-73
2021/03/27 08:30:02;;;;;;;4.70;0.80;;;;;;;-142.13;100.00;58370.81;4992139;28;20455;-74
2021/03/27 08:32:54;;;;;;;2.33;0.60;;;;;;;-142.13;100.00;58370.81;4988650;28;20942;-74
2021/03/27 08:35:57;;;;;;;3.80;0.63;;;;;;;-142.13;100.00;58370.81;4987115;28;20426;-75
2021/03/27 08:38:41;;;;;;;0.90;0.60;;;;;;;-142.13;100.00;58370.81;4979871;28;20799;-73
2021/03/27 08:41:33;;;;;;;1.60;0.73;;;;;;;-142.13;100.00;58370.81;4983478;28;20456;-74
2021/03/27 08:44:33;;;;;;;3.50;0.70;;;;;;;-142.13;100.00;58370.81;4986942;28;20445;-73
2021/03/27 08:47:20;;;;;;;1.53;0.60;;;;;;;-142.13;100.00;58370.81;4984407;28;20464;-73
2021/03/27 08:50:36;;;;;;;1.20;1.10;;;;;;;-142.13;100.00;58370.81;4986848;28;20448;-73
2021/03/27 08:53:18;;;;;;;1.33;0.70;;;;;;;-142.13;100.00;58370.81;4992547;28;20274;-73
2021/03/27 08:56:28;;;;;;;3.50;1.10;;;;;;;-142.13;100.00;58370.81;4985452;28;20837;-73
2021/03/27 08:59:17;;;;;;;0.90;0.70;;;;;;;-142.13;100.00;58370.81;4967349;28;20465;-72
2021/03/27 09:02:23;;;;;;;1.30;0.60;;;;;;;9.40;56.28;97188.53;5061099;27;20636;-47
2021/03/27 09:05:02;;;;;;;1.20;0.60;;;;;;;9.53;55.92;97190.44;5035725;28;20747;-51
2021/03/27 09:07:45;;;;;;;2.60;1.03;;;;;;;9.44;54.93;97190.91;5035952;28;20799;-48
2021/03/27 09:10:39;;;;;;;1.80;0.57;;;;;;;9.24;53.15;97197.97;5033689;28;20740;-51
2021/03/27 09:13:23;;;;;;;2.70;0.70;;;;;;;9.18;54.39;97193.91;5030760;28;20840;-48
2021/03/27 09:16:35;;;;;;;2.10;1.07;;;;;;;9.09;55.05;97191.72;5029549;28;20426;-48
2021/03/27 09:19:44;;;;;;;4.00;0.60;;;;;;;9.37;54.38;97186.09;5027328;28;20553;-48
2021/03/27 09:25:20;;;;;;;1.20;0.63;;;;;;;9.35;55.62;97206.94;4927336;28;20886;-73
2021/03/27 09:28:07;;;;;;;3.23;0.60;;;;;;;9.72;55.29;97209.44;4926657;28;20461;-73
2021/03/27 09:30:42;;;;;;;2.10;0.80;;;;;;;10.38;54.15;97205.28;4927900;28;20430;-72
2021/03/27 09:33:17;;;;;;;0.90;0.60;;;;;;;9.80;51.38;97214.28;4928281;28;20841;-74
2021/03/27 09:36:30;;;;;;;5.23;0.77;;;;;;;9.61;52.70;97235.13;4922427;28;20772;-74
2021/03/27 09:39:12;;;;;;;1.43;0.60;;;;;;;9.42;53.01;97236.91;4896529;28;20482;-73
2021/03/27 09:42:06;;;;;;;10.23;1.87;;;;;;;9.34;52.35;97231.22;4960935;28;21009;-73
2021/03/27 09:44:44;;;;;;;1.67;0.70;;;;;;;9.29;53.05;97237.56;4926772;28;20785;-74
2021/03/27 09:47:28;;;;;;;0.80;0.60;;;;;;;9.27;53.36;97235.03;4917293;28;20852;-73
2021/03/27 09:50:03;;;;;;;4.30;0.83;;;;;;;9.85;52.95;97243.47;4932621;28;20798;-74
2021/03/27 09:52:46;;;;;;;8.83;0.83;;;;;;;10.17;52.02;97246.22;4915879;28;20582;-73
2021/03/27 09:55:34;;;;;;;3.27;0.70;;;;;;;10.76;50.27;97251.00;4925384;28;21086;-74
2021/03/27 09:58:23;;;;;;;2.30;0.77;;;;;;;10.63;50.30;97250.78;4956992;28;20459;-74
2021/03/27 10:00:58;;;;;;;8.93;0.77;;;;;;;10.39;51.66;97244.22;4893666;28;20489;-75
2021/03/27 10:03:39;;;;;;;2.40;0.87;;;;;;;10.73;48.96;97249.38;4919657;28;20922;-73
2021/03/27 10:06:44;;;;;;;4.67;0.70;;;;;;;10.06;50.29;97248.53;4925465;28;20439;-74
2021/03/27 10:09:30;;;;;;;3.37;0.80;;;;;;;10.85;49.64;97266.97;4913370;28;20870;-73
2021/03/27 10:12:02;;;;;;;2.47;0.63;;;;;;;10.76;49.25;97262.22;4935092;28;20503;-73
2021/03/27 10:14:35;;;;;;;1.30;0.80;;;;;;;9.86;51.43;97261.63;4927615;28;20835;-74
2021/03/27 10:17:18;;;;;;;4.40;0.83;;;;;;;9.78;52.07;97273.28;4914449;28;20451;-73
2021/03/27 10:19:54;;;;;;;1.40;0.67;;;;;;;9.59;51.19;97277.69;4928983;28;20810;-73
2021/03/27 10:22:34;;;;;;;3.27;0.90;;;;;;;9.59;51.51;97273.31;4911164;28;20560;-74
2021/03/27 10:25:17;;;;;;;1.63;0.70;;;;;;;9.75;51.48;97260.44;4915088;29;20899;-73
2021/03/27 10:28:05;;;;;;;4.23;1.30;;;;;;;10.13;49.58;97262.91;4902759;28;20505;-73
2021/03/27 10:30:46;;;;;;;4.13;1.17;;;;;;;10.80;49.12;97262.91;4903417;29;20451;-73
2021/03/27 10:33:18;;;;;;;1.63;0.70;;;;;;;11.31;48.87;97276.63;4907614;28;21009;-73
2021/03/27 10:36:01;;;;;;;2.07;0.80;;;;;;;11.53;47.19;97271.09;4911120;29;20446;-75
2021/03/27 10:39:03;;;;;;;2.10;0.70;;;;;;;10.93;48.27;97274.38;4909476;28;21049;-74
2021/03/27 10:42:11;;;;;;;2.93;0.80;;;;;;;11.68;48.31;97281.56;4912959;28;20948;-73
2021/03/27 10:44:46;;;;;;;1.80;0.53;;;;;;;11.85;47.24;97289.28;4905483;29;20863;-73
2021/03/27 10:47:18;;;;;;;3.70;0.70;;;;;;;11.48;47.24;97288.75;4913246;28;20998;-74
2021/03/27 10:49:53;;;;;;;2.93;0.77;;;;;;;11.54;45.53;97293.63;4912222;28;20439;-73
2021/03/27 10:52:54;;;;;;;2.20;0.90;;;;;;;11.85;46.03;97297.09;4907784;28;20479;-74
2021/03/27 10:55:39;;;;;;;1.53;0.80;;;;;;;11.75;46.89;97292.47;4912280;29;20466;-73
2021/03/27 10:58:47;;;;;;;3.93;0.90;;;;;;;11.87;46.98;97290.03;4913084;28;20850;-73
2021/03/27 11:01:35;;;;;;;1.17;0.77;;;;;;;11.57;46.70;97304.72;4911899;29;20463;-74
2021/03/27 11:04:33;;;;;;;3.93;0.70;;;;;;;12.40;46.10;97298.28;4911202;28;20839;-74
2021/03/27 11:07:52;;;;;;;3.20;1.20;;;;;;;11.96;45.24;97297.34;4912364;28;20470;-74
2021/03/27 11:10:52;;;;;;;1.93;0.80;;;;;;;11.50;47.32;97298.16;4909955;29;20424;-73
2021/03/27 11:13:54;;;;;;;2.60;0.80;;;;;;;12.11;47.57;97285.19;4884579;29;20491;-73
2021/03/27 11:16:46;;;;;;;2.50;1.00;;;;;;;12.44;45.58;97304.97;4896862;29;20534;-74
2021/03/27 11:19:54;;;;;;;2.50;0.60;;;;;;;11.27;46.17;97295.94;4915961;29;20506;-74
2021/03/27 11:23:05;;;;;;;3.40;1.10;;;;;;;11.08;46.85;97316.09;4910467;28;20784;-72
2021/03/27 11:26:16;;;;;;;3.00;0.80;;;;;;;11.81;47.29;97308.66;4898116;29;20893;-74
2021/03/27 11:28:47;;;;;;;3.23;0.90;;;;;;;12.26;46.06;97281.72;4908485;28;21228;-75
2021/03/27 11:31:39;;;;;;;3.10;0.90;;;;;;;12.76;45.33;97290.91;4912434;29;20764;-73
2021/03/27 11:34:24;;;;;;;6.33;1.30;;;;;;;12.79;46.02;97295.94;4910587;28;20918;-74
2021/03/27 11:37:11;;;;;;;4.20;0.90;;;;;;;13.70;45.47;97305.09;4929180;28;20759;-74
2021/03/27 11:39:47;;;;;;;1.60;0.73;;;;;;;13.92;43.17;97292.34;4944075;28;20831;-74
2021/03/27 11:42:28;;;;;;;1.90;0.90;;;;;;;13.79;44.35;97299.28;4917153;28;20790;-74
2021/03/27 11:45:06;;;;;;;6.00;0.83;;;;;;;14.38;43.76;97301.53;4918180;29;20823;-75
2021/03/27 11:47:46;;;;;;;2.30;0.90;;;;;;;14.46;43.26;97288.78;4901043;28;20519;-71
2021/03/27 11:50:34;;;;;;;1.17;0.80;;;;;;;13.62;42.75;97289.03;4929938;28;20942;-74
2021/03/27 11:53:13;;;;;;;3.03;0.80;;;;;;;12.74;44.65;97308.41;4910160;28;20951;-74
2021/03/27 11:55:49;;;;;;;1.63;0.70;;;;;;;12.04;44.06;97289.94;4910232;29;20850;-74
2021/03/27 11:58:30;;;;;;;1.63;0.63;;;;;;;11.59;45.93;97296.84;4908670;28;20545;-73
2021/03/27 12:01:01;;;;;;;6.33;1.10;;;;;;;11.65;45.74;97302.56;4903965;29;20463;-73
2021/03/27 12:03:39;;;;;;;3.83;1.17;;;;;;;11.62;45.61;97300.13;4913177;28;21019;-71
2021/03/27 12:06:31;;;;;;;4.03;1.00;;;;;;;11.26;45.83;97296.88;4913801;29;20741;-72
2021/03/27 12:09:10;;;;;;;2.23;0.83;;;;;;;10.53;47.39;97298.19;4910175;28;20537;-73
2021/03/27 12:12:08;;;;;;;2.80;0.80;;;;;;;10.20;47.83;97292.91;4915312;29;20926;-71
2021/03/27 12:14:48;;;;;;;2.33;0.70;;;;;;;10.57;47.47;97297.97;4908781;29;20467;-71
2021/03/27 12:17:24;;;;;;;1.83;0.77;;;;;;;10.83;48.25;97294.84;4914015;28;20458;-71
2021/03/27 12:19:58;;;;;;;4.17;0.80;;;;;;;10.81;47.80;97299.28;4913003;29;21168;-71
2021/03/27 12:22:32;;;;;;;43.60;21.23;;;;;;;10.54;47.48;97307.69;4909368;28;20554;-72
2021/03/27 12:25:23;;;;;;;7.93;0.83;;;;;;;10.17;48.89;97324.25;4912190;29;20963;-71
2021/03/27 12:28:00;;;;;;;1.67;0.70;;;;;;;10.48;48.60;97307.97;4899785;28;20939;-71
2021/03/27 12:30:36;;;;;;;4.30;0.70;;;;;;;10.41;49.07;97312.66;4910268;29;20435;-72
2021/03/27 12:33:10;;;;;;;4.83;0.90;;;;;;;10.32;48.78;97318.31;4911718;28;20474;-71
2021/03/27 12:35:45;;;;;;;6.07;1.10;;;;;;;10.30;49.17;97307.13;4909751;29;20946;-72
2021/03/27 12:38:29;;;;;;;3.00;0.97;;;;;;;10.28;49.27;97306.38;4910370;28;20475;-73
2021/03/27 12:41:08;;;;;;;2.47;1.10;;;;;;;10.35;50.52;97319.91;4899921;29;20460;-73
2021/03/27 12:43:49;;;;;;;2.77;0.70;;;;;;;10.41;48.75;97317.88;4906829;28;20562;-72
2021/03/27 12:46:41;;;;;;;2.40;0.70;;;;;;;10.90;47.88;97314.44;4937095;28;21146;-72